Time;durP1;ratioP1;P1;durP2;ratioP2;P2;SDS_P1;SDS_P2;PMS_P1;PMS_P2;Temp;Humidity;BMP_temperature;BMP_pressure;BME280_temperature;BME280_humidity;BME280_pressure;Samples;Min_cycle;Max_cycle;Signal;HPM_P1;HPM_P2
2022/07/19 00:02:09;;;;;;;;;;;;;;;23.28;50.19;101515.16;4917968;29;4227;-73
2022/07/19 00:04:35;;;;;;;;;;;;;;;23.28;50.23;101513.00;4920209;29;5499;-73
2022/07/19 00:07:02;;;;;;;;;;;;;;;23.28;49.89;101513.00;4916092;29;5302;-73
2022/07/19 00:09:28;;;;;;;;;;;;;;;23.27;50.31;101513.66;4919653;29;4215;-74
2022/07/19 00:11:55;;;;;;;;;;;;;;;23.27;50.31;101505.72;4917030;29;4271;-73
2022/07/19 00:14:21;;;;;;;;;;;;;;;23.27;50.63;101510.75;4920407;29;4181;-74
2022/07/19 00:16:47;;;;;;;;;;;;;;;23.25;50.59;101505.66;4918936;29;5272;-74
2022/07/19 00:19:14;;;;;;;;;;;;;;;23.25;50.55;101510.66;4917788;29;4121;-71
2022/07/19 00:21:40;;;;;;;;;;;;;;;23.24;50.65;101512.81;4902173;29;4308;-74
2022/07/19 00:24:06;;;;;;;;;;;;;;;23.24;50.31;101515.69;4900238;29;3980;-73
2022/07/19 00:26:33;;;;;;;;;;;;;;;23.23;50.47;101517.13;4920516;29;4346;-74
2022/07/19 00:29:00;;;;;;;;;;;;;;;23.23;50.47;101519.22;4919567;29;5275;-73
2022/07/19 00:31:27;;;;;;;;;;;;;;;23.21;50.61;101514.88;4921586;29;4255;-73
2022/07/19 00:33:53;;;;;;;;;;;;;;;23.22;50.34;101524.28;4899475;29;4254;-74
2022/07/19 00:36:20;;;;;;;;;;;;;;;23.20;50.44;101524.19;4919053;29;4237;-74
2022/07/19 00:38:46;;;;;;;;;;;;;;;23.20;50.58;101516.28;4911287;29;4277;-74
2022/07/19 00:41:12;;;;;;;;;;;;;;;23.21;50.50;101519.91;4920147;29;4580;-73
2022/07/19 00:43:39;;;;;;;;;;;;;;;23.20;50.70;101518.41;4921040;29;4281;-74
2022/07/19 00:46:13;;;;;;;;;;;;;;;23.20;50.36;101519.16;4918405;29;5340;-74
2022/07/19 00:48:40;;;;;;;;;;;;;;;23.20;50.47;101524.19;4916406;29;5425;-73
2022/07/19 00:51:07;;;;;;;;;;;;;;;23.20;50.26;101524.19;4919177;29;4266;-74
2022/07/19 00:53:35;;;;;;;;;;;;;;;23.19;50.44;101526.34;4918154;29;4272;-73
2022/07/19 00:56:02;;;;;;;;;;;;;;;23.20;50.49;101521.28;4921077;29;6177;-73
2022/07/19 00:58:29;;;;;;;;;;;;;;;23.20;50.20;101518.41;4902949;29;3995;-71
2022/07/19 01:00:55;;;;;;;;;;;;;;;23.20;50.22;101524.19;4911905;29;3962;-71
2022/07/19 01:03:22;;;;;;;;;;;;;;;23.18;50.66;101529.88;4915193;29;4053;-71
2022/07/19 01:05:48;;;;;;;;;;;;;;;23.17;50.35;101519.72;4902688;29;4109;-71
2022/07/19 01:08:14;;;;;;;;;;;;;;;23.17;50.48;101525.50;4918070;29;4137;-73
2022/07/19 01:10:41;;;;;;;;;;;;;;;23.16;50.46;101521.88;4918329;29;4282;-73
2022/07/19 01:13:07;;;;;;;;;;;;;;;23.16;50.58;101521.88;4914880;29;4220;-74
2022/07/19 01:15:33;;;;;;;;;;;;;;;23.15;50.29;101523.25;4910296;29;4119;-71
2022/07/19 01:18:00;;;;;;;;;;;;;;;23.15;50.47;101528.28;4916278;29;4196;-71
2022/07/19 01:20:26;;;;;;;;;;;;;;;23.17;50.39;101522.59;4899443;29;4013;-74
2022/07/19 01:22:56;;;;;;;;;;;;;;;23.14;50.38;101518.16;4899151;29;5186;-71
2022/07/19 01:25:23;;;;;;;;;;;;;;;23.16;50.57;101529.78;4917309;29;5171;-71
2022/07/19 01:27:49;;;;;;;;;;;;;;;23.14;50.49;101526.81;4919001;29;4098;-74
2022/07/19 01:30:17;;;;;;;;;;;;;;;23.15;50.17;101525.41;4915337;29;4076;-71
2022/07/19 01:32:43;;;;;;;;;;;;;;;23.14;50.66;101524.66;4912963;29;4019;-73
2022/07/19 01:35:10;;;;;;;;;;;;;;;23.14;50.33;101524.66;4917122;29;4205;-74
2022/07/19 01:37:36;;;;;;;;;;;;;;;23.14;50.31;101526.81;4920094;29;4314;-74
2022/07/19 01:40:03;;;;;;;;;;;;;;;23.13;50.53;101531.09;4917269;29;4209;-71
2022/07/19 01:42:29;;;;;;;;;;;;;;;23.10;50.38;101533.13;4912986;29;4248;-72
2022/07/19 01:44:56;;;;;;;;;;;;;;;23.10;50.16;101527.38;4914889;29;4232;-74
2022/07/19 01:47:22;;;;;;;;;;;;;;;23.08;50.37;101521.50;4919206;29;4385;-73
2022/07/19 01:49:49;;;;;;;;;;;;;;;23.10;50.31;101517.97;4897204;29;4212;-72
2022/07/19 01:52:15;;;;;;;;;;;;;;;23.08;50.27;101517.84;4908693;29;4062;-72
2022/07/19 01:54:42;;;;;;;;;;;;;;;23.05;49.93;101504.72;4909302;29;4526;-72
2022/07/19 01:57:08;;;;;;;;;;;;;;;23.07;49.99;101510.59;4909812;29;4244;-72
2022/07/19 01:59:38;;;;;;;;;;;;;;;23.07;49.99;101510.59;4917679;29;5425;-72
2022/07/19 02:02:04;;;;;;;;;;;;;;;23.06;49.89;101504.06;4910301;29;4367;-72
2022/07/19 02:04:31;;;;;;;;;;;;;;;23.06;50.26;101503.31;4892340;29;4245;-72
2022/07/19 02:06:58;;;;;;;;;;;;;;;23.05;50.17;101507.63;4910354;29;4161;-72
2022/07/19 02:09:24;;;;;;;;;;;;;;;23.10;49.90;101503.50;4904369;29;4160;-72
2022/07/19 02:11:51;;;;;;;;;;;;;;;23.06;49.98;101509.09;4912982;29;4077;-72
2022/07/19 02:14:17;;;;;;;;;;;;;;;23.03;49.80;101511.16;4908208;29;5438;-72
2022/07/19 02:16:44;;;;;;;;;;;;;;;23.04;49.78;101509.75;4912144;29;4164;-72
2022/07/19 02:19:10;;;;;;;;;;;;;;;23.03;50.01;101510.41;4911995;29;4333;-72
2022/07/19 02:21:36;;;;;;;;;;;;;;;23.02;49.90;101506.03;4924213;29;4192;-72
2022/07/19 02:24:03;;;;;;;;;;;;;;;23.03;49.82;101504.63;4921060;29;5515;-72
2022/07/19 02:26:30;;;;;;;;;;;;;;;23.00;49.85;101507.44;4903652;29;4094;-72
2022/07/19 02:29:03;;;;;;;;;;;;;;;23.01;49.69;101513.94;4912036;29;4253;-72
2022/07/19 02:31:30;;;;;;;;;;;;;;;23.00;49.87;101513.22;4914264;29;4189;-72
2022/07/19 02:33:56;;;;;;;;;;;;;;;22.98;49.78;101515.97;4912255;29;4237;-73
2022/07/19 02:36:23;;;;;;;;;;;;;;;22.99;49.90;101511.69;4910856;29;4635;-72
2022/07/19 02:38:49;;;;;;;;;;;;;;;22.98;49.46;101512.34;4912127;29;4172;-72
2022/07/19 02:41:16;;;;;;;;;;;;;;;22.98;49.76;101510.19;4888201;29;4314;-72
2022/07/19 02:43:43;;;;;;;;;;;;;;;22.98;49.78;101504.41;4912828;29;4230;-72
2022/07/19 02:46:10;;;;;;;;;;;;;;;22.97;49.46;101502.91;4910168;29;4219;-72
2022/07/19 02:48:37;;;;;;;;;;;;;;;22.96;49.52;101501.44;4910942;29;4255;-72
2022/07/19 02:51:03;;;;;;;;;;;;;;;22.95;49.74;101502.06;4908396;29;4234;-72
2022/07/19 02:53:30;;;;;;;;;;;;;;;22.94;49.64;101498.44;4910709;29;4280;-71
2022/07/19 02:55:57;;;;;;;;;;;;;;;22.94;49.25;101498.44;4909646;29;4071;-72
2022/07/19 02:58:23;;;;;;;;;;;;;;;22.95;49.44;101502.84;4916622;29;4148;-72
2022/07/19 03:00:53;;;;;;;;;;;;;;;22.93;49.63;101501.97;4920129;29;4095;-72
2022/07/19 03:06:06;;;;;;;;;;;;;;;22.92;49.62;101507.00;4918445;29;4164;-72
2022/07/19 03:08:32;;;;;;;;;;;;;;;22.93;49.46;101496.97;4924243;29;4082;-72
2022/07/19 03:10:58;;;;;;;;;;;;;;;22.91;49.34;101494.00;4920069;29;5501;-70
2022/07/19 03:13:25;;;;;;;;;;;;;;;22.91;49.53;101499.03;4910772;29;4265;-71
2022/07/19 03:15:51;;;;;;;;;;;;;;;22.90;49.53;101504.03;4913105;29;4281;-72
2022/07/19 03:18:18;;;;;;;;;;;;;;;22.89;49.54;101499.66;4915428;29;4285;-71
2022/07/19 03:20:44;;;;;;;;;;;;;;;22.88;49.62;101506.81;4919792;29;5542;-72
2022/07/19 03:23:10;;;;;;;;;;;;;;;22.88;49.57;101506.81;4916286;29;4206;-72
2022/07/19 03:25:37;;;;;;;;;;;;;;;22.87;49.25;101499.56;4916224;29;4166;-71
2022/07/19 03:28:03;;;;;;;;;;;;;;;22.86;49.24;101508.88;4916684;29;4247;-72
2022/07/19 03:30:31;;;;;;;;;;;;;;;22.85;49.39;101499.47;4911443;29;4152;-72
2022/07/19 03:32:58;;;;;;;;;;;;;;;22.86;49.21;101497.31;4906428;29;4168;-72
2022/07/19 03:35:24;;;;;;;;;;;;;;;22.83;49.42;101502.25;4905659;29;4269;-72
2022/07/19 03:37:50;;;;;;;;;;;;;;;22.82;49.29;101503.69;4899938;29;5480;-73
2022/07/19 03:40:17;;;;;;;;;;;;;;;22.83;49.43;101501.53;4906483;29;4094;-72
2022/07/19 03:42:43;;;;;;;;;;;;;;;22.84;49.42;101505.88;4906972;29;5378;-72
2022/07/19 03:45:10;;;;;;;;;;;;;;;22.84;49.16;101500.88;4902935;29;4152;-72
2022/07/19 03:47:36;;;;;;;;;;;;;;;22.84;48.99;101500.13;4905750;29;5302;-72
2022/07/19 03:50:03;;;;;;;;;;;;;;;22.82;49.27;101503.69;4906096;29;4207;-72
2022/07/19 03:52:29;;;;;;;;;;;;;;;22.82;49.29;101494.28;4908426;29;4079;-72
2022/07/19 03:54:55;;;;;;;;;;;;;;;22.81;49.19;101502.16;4906624;29;4173;-72
2022/07/19 03:57:22;;;;;;;;;;;;;;;22.80;49.25;101506.47;4906828;29;4181;-71
2022/07/19 03:59:48;;;;;;;;;;;;;;;22.80;49.00;101503.56;4904277;29;4144;-72
2022/07/19 04:02:14;;;;;;;;;;;;;;;22.82;48.86;101497.16;4908510;29;5332;-72
2022/07/19 04:04:41;;;;;;;;;;;;;;;22.79;48.86;101499.19;4908096;29;4259;-72
2022/07/19 04:07:08;;;;;;;;;;;;;;;22.80;48.99;101498.53;4906412;29;5588;-72
2022/07/19 04:09:34;;;;;;;;;;;;;;;22.80;49.15;101503.56;4903247;29;4525;-72
2022/07/19 04:12:00;;;;;;;;;;;;;;;22.80;49.30;101507.19;4906751;29;4244;-72
2022/07/19 04:14:27;;;;;;;;;;;;;;;22.79;49.29;101507.84;4904399;29;4252;-72
2022/07/19 04:16:53;;;;;;;;;;;;;;;22.79;49.49;101505.72;4906753;29;5489;-72
2022/07/19 04:19:20;;;;;;;;;;;;;;;22.80;49.45;101506.47;4904939;29;4171;-72
2022/07/19 04:21:46;;;;;;;;;;;;;;;22.79;49.56;101507.84;4909258;29;4219;-72
2022/07/19 04:24:12;;;;;;;;;;;;;;;22.03;50.86;101518.63;4907518;29;4262;-69
2022/07/19 04:26:39;;;;;;;;;;;;;;;20.56;55.23;101519.47;4919920;29;5686;-64
2022/07/19 04:29:05;;;;;;;;;;;;;;;20.16;56.75;101524.41;4916561;29;4273;-63
2022/07/19 04:31:31;;;;;;;;;;;;;;;19.99;57.70;101528.47;4912887;29;5314;-63
2022/07/19 04:33:58;;;;;;;;;;;;;;;19.98;57.94;101526.97;4915782;29;4213;-64
2022/07/19 04:36:25;;;;;;;;;;;;;;;19.79;58.65;101523.03;4919400;29;4210;-64
2022/07/19 04:38:51;;;;;;;;;;;;;;;19.80;58.96;101523.78;4912939;29;4272;-64
2022/07/19 04:41:18;;;;;;;;;;;;;;;19.85;58.96;101519.75;4896326;29;4245;-63
2022/07/19 04:43:44;;;;;;;;;;;;;;;19.86;59.03;101527.03;4916261;29;4247;-64
2022/07/19 04:46:10;;;;;;;;;;;;;;;20.02;59.18;101525.09;4910120;29;5148;-63
2022/07/19 04:48:37;;;;;;;;;;;;;;;19.95;59.91;101523.25;4897349;29;4109;-63
2022/07/19 04:51:03;;;;;;;;;;;;;;;19.96;60.01;101521.84;4900984;29;4371;-63
2022/07/19 04:53:30;;;;;;;;;;;;;;;20.11;59.94;101517.66;4904928;29;4266;-63
2022/07/19 04:56:04;;;;;;;;;;;;;;;20.19;60.12;101520.28;4910232;29;4287;-66
2022/07/19 04:58:31;;;;;;;;;;;;;;;20.23;60.46;101523.41;4905100;29;4035;-60
2022/07/19 05:00:57;;;;;;;;;;;;;;;20.40;60.13;101528.69;4909294;29;4479;-63
2022/07/19 05:03:23;;;;;;;;;;;;;;;20.44;60.19;101526.03;4906951;29;4041;-68
2022/07/19 05:05:50;;;;;;;;;;;;;;;20.75;59.14;101524.88;4907121;29;4288;-75
2022/07/19 05:08:17;;;;;;;;;;;;;;;20.75;59.52;101529.91;4910824;29;4180;-61
2022/07/19 05:10:43;;;;;;;;;;;;;;;20.79;59.27;101524.38;4910630;29;4287;-61
2022/07/19 05:13:10;;;;;;;;;;;;;;;20.94;58.95;101523.78;4913071;29;4390;-61
2022/07/19 05:15:36;;;;;;;;;;;;;;;20.91;59.13;101530.78;4915398;29;4363;-61
2022/07/19 05:18:03;;;;;;;;;;;;;;;21.18;57.96;101524.31;4911711;29;4231;-60
2022/07/19 05:20:29;;;;;;;;;;;;;;;21.40;56.65;101524.81;4920170;29;4305;-61
2022/07/19 05:22:56;;;;;;;;;;;;;;;21.57;56.14;101522.75;4916577;29;4248;-61
2022/07/19 05:25:22;;;;;;;;;;;;;;;21.63;55.93;101537.50;4916365;29;4234;-65
2022/07/19 05:27:49;;;;;;;;;;;;;;;21.57;56.04;101532.16;4916674;29;4108;-61
2022/07/19 05:30:16;;;;;;;;;;;;;;;21.67;55.15;101532.69;4915990;29;4434;-65
2022/07/19 05:32:42;;;;;;;;;;;;;;;21.38;56.24;101539.06;4914929;29;4255;-62
2022/07/19 05:35:09;;;;;;;;;;;;;;;21.32;56.27;101533.72;4919493;29;4232;-63
2022/07/19 05:37:35;;;;;;;;;;;;;;;21.40;56.25;101533.44;4919246;29;4104;-63
2022/07/19 05:40:01;;;;;;;;;;;;;;;21.37;57.70;101545.47;4921681;29;4246;-64
2022/07/19 05:42:28;;;;;;;;;;;;;;;21.36;57.79;101547.59;4917967;29;4207;-64
2022/07/19 05:44:55;;;;;;;;;;;;;;;21.36;58.03;101550.47;4920637;29;4235;-63
2022/07/19 05:47:21;;;;;;;;;;;;;;;21.41;56.30;101545.72;4916154;29;5380;-60
2022/07/19 05:49:48;;;;;;;;;;;;;;;21.52;56.39;101539.09;4902174;29;4248;-63
2022/07/19 05:52:14;;;;;;;;;;;;;;;21.62;56.34;101548.25;4915708;29;4204;-63
2022/07/19 05:54:40;;;;;;;;;;;;;;;21.66;56.97;101553.50;4914549;29;4174;-63
2022/07/19 05:57:07;;;;;;;;;;;;;;;21.66;56.24;101554.25;4916597;29;3910;-64
2022/07/19 05:59:35;;;;;;;;;;;;;;;21.74;56.43;101554.69;4921648;29;4152;-63
2022/07/19 06:02:02;;;;;;;;;;;;;;;21.48;55.43;101547.53;4916179;29;5316;-62
2022/07/19 06:04:28;;;;;;;;;;;;;;;21.69;55.39;101547.22;4895387;29;4273;-62
2022/07/19 06:06:55;;;;;;;;;;;;;;;22.13;55.46;101547.25;4912417;29;4100;-66
2022/07/19 06:09:21;;;;;;;;;;;;;;;22.31;54.52;101545.28;4917385;29;4278;-64
2022/07/19 06:11:48;;;;;;;;;;;;;;;22.37;53.63;101554.22;4925059;29;4225;-61
2022/07/19 06:14:15;;;;;;;;;;;;;;;22.36;53.84;101552.00;4916537;29;4179;-62
2022/07/19 06:16:41;;;;;;;;;;;;;;;22.37;53.97;101547.72;4911834;29;4278;-64
2022/07/19 06:19:08;;;;;;;;;;;;;;;22.41;54.21;101552.94;4912397;29;4200;-62
2022/07/19 06:21:34;;;;;;;;;;;;;;;22.44;53.73;101545.88;4921111;29;4284;-66
2022/07/19 06:24:01;;;;;;;;;;;;;;;22.47;53.76;101545.34;4919450;29;4250;-62
2022/07/19 06:26:27;;;;;;;;;;;;;;;22.48;53.59;101546.09;4921252;29;4428;-62
2022/07/19 06:28:54;;;;;;;;;;;;;;;22.58;52.28;101541.53;4914149;29;4249;-63
2022/07/19 06:31:20;;;;;;;;;;;;;;;22.64;51.82;101540.34;4922012;29;4218;-62
2022/07/19 06:33:47;;;;;;;;;;;;;;;22.70;51.49;101543.50;4919531;29;6311;-62
2022/07/19 06:36:13;;;;;;;;;;;;;;;22.70;51.83;101537.72;4920937;29;5536;-63
2022/07/19 06:38:41;;;;;;;;;;;;;;;22.69;52.70;101539.13;4920635;29;5368;-61
2022/07/19 06:41:07;;;;;;;;;;;;;;;22.72;52.33;101541.47;4917867;29;5453;-63
2022/07/19 06:43:34;;;;;;;;;;;;;;;22.77;52.85;101542.44;4920794;29;4368;-64
2022/07/19 06:46:00;;;;;;;;;;;;;;;22.85;52.13;101548.56;4919227;29;4242;-64
2022/07/19 06:48:26;;;;;;;;;;;;;;;22.84;52.34;101544.19;4920586;29;4203;-65
2022/07/19 06:50:53;;;;;;;;;;;;;;;22.86;52.29;101538.53;4919991;29;4331;-67
2022/07/19 06:53:19;;;;;;;;;;;;;;;22.85;52.17;101548.56;4920500;29;4260;-66
2022/07/19 06:55:46;;;;;;;;;;;;;;;22.90;52.23;101537.94;4918339;29;4401;-63
2022/07/19 06:58:12;;;;;;;;;;;;;;;22.91;52.13;101543.09;4917663;29;4253;-63
2022/07/19 07:00:38;;;;;;;;;;;;;;;22.86;51.96;101547.19;4918631;29;4267;-65
2022/07/19 07:03:05;;;;;;;;;;;;;;;23.28;50.67;101536.13;4914725;29;4380;-65
2022/07/19 07:06:06;;;;;;;;;;;;;;;;;;;;;
2022/07/19 07:08:48;;;;;;;;;;;;;;;23.45;50.52;101533.94;4910882;29;4284;-66
2022/07/19 07:11:15;;;;;;;;;;;;;;;23.55;50.13;101534.41;4917941;29;4204;-65
2022/07/19 07:13:41;;;;;;;;;;;;;;;23.62;50.18;101539.06;4920333;29;4260;-67
2022/07/19 07:16:08;;;;;;;;;;;;;;;23.53;50.16;101537.94;4915771;29;4263;-68
2022/07/19 07:18:34;;;;;;;;;;;;;;;23.55;50.45;101534.41;4920311;29;4272;-63
2022/07/19 07:21:01;;;;;;;;;;;;;;;23.62;50.12;101541.94;4919553;29;4219;-63
2022/07/19 07:23:27;;;;;;;;;;;;;;;23.67;49.74;101534.94;4917894;29;5339;-71
2022/07/19 07:25:54;;;;;;;;;;;;;;;23.47;49.97;101542.72;4921280;29;4240;-72
2022/07/19 07:28:20;;;;;;;;;;;;;;;23.42;50.54;101539.63;4918566;29;5545;-71
2022/07/19 07:30:51;;;;;;;;;;;;;;;23.41;50.36;101538.16;4925086;29;4471;-66
2022/07/19 07:33:18;;;;;;;;;;;;;;;23.47;50.08;101543.44;4913336;29;5478;-78
2022/07/19 07:35:44;;;;;;;;;;;;;;;23.51;49.94;101540.00;4923416;29;4248;-71
2022/07/19 07:38:10;;;;;;;;;;;;;;;23.28;49.72;101535.38;4915749;29;4219;-71
2022/07/19 07:40:37;;;;;;;;;;;;;;;23.28;50.71;101536.13;4916027;29;4296;-70
2022/07/19 07:43:03;;;;;;;;;;;;;;;23.39;49.85;101540.97;4907324;29;4353;-69
2022/07/19 07:45:30;;;;;;;;;;;;;;;23.16;50.26;101541.34;4907374;29;4201;-66
2022/07/19 07:47:56;;;;;;;;;;;;;;;23.08;50.44;101532.31;4919272;29;4585;-67
2022/07/19 07:50:22;;;;;;;;;;;;;;;23.04;50.51;101529.97;4916430;29;4470;-68
2022/07/19 07:52:49;;;;;;;;;;;;;;;23.02;50.56;101532.00;4917965;29;5448;-65
2022/07/19 07:55:15;;;;;;;;;;;;;;;23.00;50.89;101542.09;4916528;29;4227;-67
2022/07/19 07:57:58;;;;;;;;;;;;;;;22.98;50.85;101533.31;4909344;29;4221;-65
2022/07/19 08:00:25;;;;;;;;;;;;;;;23.00;50.94;101529.78;4917144;29;5155;-65
2022/07/19 08:02:51;;;;;;;;;;;;;;;22.98;51.04;101533.31;4914393;29;5524;-64
2022/07/19 08:05:21;;;;;;;;;;;;;;;22.97;51.44;101545.50;4916474;29;4263;-64
2022/07/19 08:07:47;;;;;;;;;;;;;;;22.95;51.39;101540.38;4913552;29;4285;-64
2022/07/19 08:10:18;;;;;;;;;;;;;;;22.94;51.23;101538.88;4915394;29;4260;-64
2022/07/19 08:12:44;;;;;;;;;;;;;;;22.93;51.64;101534.50;4919671;29;4143;-64
2022/07/19 08:15:11;;;;;;;;;;;;;;;22.93;51.41;101537.41;4915935;29;4400;-64
2022/07/19 08:17:37;;;;;;;;;;;;;;;22.92;51.60;101541.69;4918067;29;5274;-64
2022/07/19 08:20:04;;;;;;;;;;;;;;;22.91;51.44;101543.09;4909721;29;4995;-64
2022/07/19 08:22:30;;;;;;;;;;;;;;;22.91;51.78;101537.31;4912371;29;4271;-64
2022/07/19 08:24:57;;;;;;;;;;;;;;;22.91;52.01;101534.41;4916863;29;5316;-64
2022/07/19 08:27:23;;;;;;;;;;;;;;;22.90;51.48;101538.69;4917697;29;4329;-64
2022/07/19 08:29:49;;;;;;;;;;;;;;;22.90;51.56;101532.91;4918989;29;4067;-63
2022/07/19 08:32:16;;;;;;;;;;;;;;;22.91;51.20;101545.97;4920597;29;4235;-64
2022/07/19 08:34:42;;;;;;;;;;;;;;;22.90;51.48;101535.81;4917759;29;5474;-64
2022/07/19 08:37:09;;;;;;;;;;;;;;;22.91;51.42;101539.47;4919122;29;5007;-64
2022/07/19 08:39:35;;;;;;;;;;;;;;;22.91;51.28;101540.19;4919997;29;5371;-64
2022/07/19 08:42:01;;;;;;;;;;;;;;;22.91;51.11;101543.09;4917228;29;4240;-63
2022/07/19 08:44:28;;;;;;;;;;;;;;;22.90;51.09;101538.69;4918759;29;4435;-63
2022/07/19 08:46:55;;;;;;;;;;;;;;;22.91;51.03;101533.69;4907061;29;4309;-64
2022/07/19 08:49:21;;;;;;;;;;;;;;;22.91;51.01;101533.69;4901250;29;5305;-63
2022/07/19 08:51:48;;;;;;;;;;;;;;;22.90;51.37;101541.56;4912100;29;4277;-63
2022/07/19 08:54:14;;;;;;;;;;;;;;;22.91;51.17;101534.41;4919415;29;5365;-63
2022/07/19 08:59:26;;;;;;;;;;;;;;;22.91;51.13;101528.66;4918362;29;4166;-64
2022/07/19 09:01:52;;;;;;;;;;;;;;;22.90;51.18;101527.13;4910879;29;4331;-65
2022/07/19 09:04:19;;;;;;;;;;;;;;;22.92;51.40;101523.59;4911272;29;4323;-64
2022/07/19 09:06:47;;;;;;;;;;;;;;;23.34;50.83;101524.84;4912314;29;4298;-67
2022/07/19 09:09:14;;;;;;;;;;;;;;;23.51;50.21;101528.44;4918453;29;5533;-70
2022/07/19 09:11:48;;;;;;;;;;;;;;;23.61;49.96;101528.88;4922856;29;4281;-68
2022/07/19 09:14:19;;;;;;;;;;;;;;;23.65;49.60;101531.94;4917577;29;4178;-68
2022/07/19 09:16:49;;;;;;;;;;;;;;;23.74;49.55;101525.13;4905191;29;4432;-64
2022/07/19 09:19:15;;;;;;;;;;;;;;;23.81;49.45;101521.09;4920304;29;4463;-66
2022/07/19 09:22:08;;;;;;;;;;;;;;;23.78;49.27;101515.91;4925567;29;4265;-72
2022/07/19 09:24:35;;;;;;;;;;;;;;;23.77;49.29;101518.03;4919447;29;4210;-73
2022/07/19 09:27:06;;;;;;;;;;;;;;;23.77;49.34;101526.72;4921637;29;4185;-79
2022/07/19 09:29:34;;;;;;;;;;;;;;;23.80;49.15;101518.84;4929065;29;4174;-71
2022/07/19 09:32:06;;;;;;;;;;;;;;;23.92;49.04;101524.44;4916313;29;4194;-77
2022/07/19 09:34:36;;;;;;;;;;;;;;;23.75;49.63;101523.72;4920306;29;4174;-66
2022/07/19 09:37:13;;;;;;;;;;;;;;;23.85;49.13;101525.59;4922855;29;4439;-68
2022/07/19 09:39:41;;;;;;;;;;;;;;;23.97;49.38;101521.06;4923618;29;4247;-69
2022/07/19 09:42:08;;;;;;;;;;;;;;;24.09;48.97;101515.03;4920973;29;4237;-71
2022/07/19 09:44:34;;;;;;;;;;;;;;;24.14;49.12;101515.94;4924201;29;4213;-68
2022/07/19 09:47:01;;;;;;;;;;;;;;;24.16;48.71;101519.66;4902414;29;5369;-69
2022/07/19 09:49:54;;;;;;;;;;;;;;;24.09;49.10;101512.13;4922913;29;4321;-68
2022/07/19 09:52:20;;;;;;;;;;;;;;;24.23;48.79;101514.84;4920464;29;5410;-71
2022/07/19 09:54:47;;;;;;;;;;;;;;;24.27;48.62;101514.28;4906453;29;5293;-69
2022/07/19 09:57:13;;;;;;;;;;;;;;;24.29;48.50;101508.59;4904276;29;4235;-68
2022/07/19 09:59:44;;;;;;;;;;;;;;;24.19;48.56;101503.13;4923291;29;4246;-65
2022/07/19 10:02:10;;;;;;;;;;;;;;;24.09;49.20;101496.91;4918322;29;4209;-69
2022/07/19 10:04:37;;;;;;;;;;;;;;;24.24;48.84;101496.84;4919021;29;5343;-68
2022/07/19 10:07:03;;;;;;;;;;;;;;;24.27;48.80;101503.44;4921064;29;4264;-69
2022/07/19 10:09:30;;;;;;;;;;;;;;;24.29;48.71;101497.00;4919625;29;4208;-69
2022/07/19 10:11:57;;;;;;;;;;;;;;;24.28;48.76;101495.50;4918352;29;4256;-69
2022/07/19 10:14:23;;;;;;;;;;;;;;;24.45;48.42;101486.06;4923296;29;4220;-64
2022/07/19 10:16:58;;;;;;;;;;;;;;;24.36;48.64;101490.06;4919211;29;5439;-61
2022/07/19 10:19:44;;;;;;;;;;;;;;;24.34;48.42;101492.88;4906646;29;5489;-70
2022/07/19 10:22:11;;;;;;;;;;;;;;;24.12;49.48;101479.00;4918533;29;5340;-63
2022/07/19 10:24:57;;;;;;;;;;;;;;;24.17;49.32;101474.84;4917270;29;5321;-64
2022/07/19 10:27:24;;;;;;;;;;;;;;;24.20;49.39;101476.41;4929227;29;5508;-64
2022/07/19 10:30:10;;;;;;;;;;;;;;;24.31;49.02;101476.84;4923281;29;5285;-65
2022/07/19 10:32:40;;;;;;;;;;;;;;;24.36;49.01;101472.69;4913477;29;4172;-64
2022/07/19 10:35:19;;;;;;;;;;;;;;;24.48;48.58;101467.41;4923497;29;4573;-63
2022/07/19 10:37:46;;;;;;;;;;;;;;;24.49;48.61;101471.78;4914206;29;4262;-64
2022/07/19 10:40:12;;;;;;;;;;;;;;;24.51;48.74;101471.09;4922329;29;5304;-65
2022/07/19 10:43:08;;;;;;;;;;;;;;;24.51;48.59;101471.88;4920898;29;5376;-63
2022/07/19 10:45:35;;;;;;;;;;;;;;;24.54;48.59;101470.53;4887841;29;4244;-62
2022/07/19 10:48:08;;;;;;;;;;;;;;;24.55;48.33;101477.06;4896234;29;5525;-62
2022/07/19 10:50:44;;;;;;;;;;;;;;;24.54;48.23;101469.81;4902340;29;4193;-63
2022/07/19 10:53:27;;;;;;;;;;;;;;;24.38;48.83;101464.09;4901666;29;4232;-62
2022/07/19 10:56:12;;;;;;;;;;;;;;;24.38;48.70;101461.19;4887321;29;4057;-65
2022/07/19 10:58:48;;;;;;;;;;;;;;;24.45;48.75;101445.53;4903372;29;4186;-66
2022/07/19 11:01:16;;;;;;;;;;;;;;;24.62;48.67;101459.28;4910578;29;4139;-66
2022/07/19 11:03:43;;;;;;;;;;;;;;;24.71;48.94;101448.00;4905835;29;4080;-67
2022/07/19 11:06:22;;;;;;;;;;;;;;;24.77;48.40;101446.06;4896725;29;4549;-61
2022/07/19 11:08:52;;;;;;;;;;;;;;;24.67;48.19;101449.34;4906391;29;4272;-63
2022/07/19 11:11:18;;;;;;;;;;;;;;;24.70;48.25;101446.50;4909520;29;4385;-66
2022/07/19 11:13:48;;;;;;;;;;;;;;;24.63;48.22;101440.47;4908915;29;4208;-63
2022/07/19 11:16:15;;;;;;;;;;;;;;;24.66;48.17;101439.13;4905204;29;4226;-62
2022/07/19 11:18:43;;;;;;;;;;;;;;;24.65;48.41;101443.47;4905196;29;4077;-66
2022/07/19 11:21:12;;;;;;;;;;;;;;;24.52;48.94;101437.88;4905651;29;5538;-68
2022/07/19 11:23:39;;;;;;;;;;;;;;;24.47;48.96;101436.97;4903179;29;4282;-65
2022/07/19 11:26:06;;;;;;;;;;;;;;;24.69;48.54;101436.31;4903376;29;4314;-66
2022/07/19 11:28:33;;;;;;;;;;;;;;;24.83;47.98;101431.06;4909645;29;4178;-67
2022/07/19 11:30:59;;;;;;;;;;;;;;;24.73;48.21;101427.78;4905703;29;4181;-65
2022/07/19 11:33:25;;;;;;;;;;;;;;;24.86;47.83;101432.63;4902924;29;4238;-72
2022/07/19 11:35:53;;;;;;;;;;;;;;;24.89;47.81;101431.28;4901690;29;5464;-70
2022/07/19 11:38:19;;;;;;;;;;;;;;;25.19;47.59;101430.94;4900498;29;4271;-67
2022/07/19 11:40:47;;;;;;;;;;;;;;;25.42;46.89;101426.66;4887067;29;4410;-71
2022/07/19 11:43:13;;;;;;;;;;;;;;;25.43;46.80;101431.06;4892474;29;4207;-72
2022/07/19 11:45:43;;;;;;;;;;;;;;;25.12;46.99;101420.50;4922770;29;4353;-70
2022/07/19 11:48:11;;;;;;;;;;;;;;;25.04;46.83;101421.72;4925387;29;4062;-66
2022/07/19 11:50:40;;;;;;;;;;;;;;;24.94;47.41;101417.69;4901192;29;4219;-67
2022/07/19 11:53:18;;;;;;;;;;;;;;;25.28;47.74;101421.09;4926092;29;4243;-67
2022/07/19 11:55:45;;;;;;;;;;;;;;;25.39;47.23;101414.25;4919430;29;4033;-62
2022/07/19 11:58:11;;;;;;;;;;;;;;;25.20;47.21;101421.56;4923010;29;4097;-67
2022/07/19 12:00:43;;;;;;;;;;;;;;;25.09;47.47;101423.34;4904144;29;4490;-65
2022/07/19 12:03:14;;;;;;;;;;;;;;;24.97;47.45;101417.09;4919134;29;5210;-66
2022/07/19 12:05:41;;;;;;;;;;;;;;;24.87;47.83;101420.34;4926301;29;4071;-64
2022/07/19 12:08:08;;;;;;;;;;;;;;;24.97;47.74;101407.66;4907291;29;5468;-67
2022/07/19 12:10:42;;;;;;;;;;;;;;;24.92;47.50;101412.56;4922407;29;4210;-64
2022/07/19 12:13:15;;;;;;;;;;;;;;;24.85;48.21;101410.84;4918722;29;4287;-66
2022/07/19 12:15:51;;;;;;;;;;;;;;;25.02;47.67;101407.16;4914855;29;4243;-66
2022/07/19 12:18:19;;;;;;;;;;;;;;;24.85;48.12;101405.81;4913680;29;4183;-62
2022/07/19 12:20:45;;;;;;;;;;;;;;;24.90;47.99;101406.72;4918332;29;5320;-66
2022/07/19 12:23:16;;;;;;;;;;;;;;;25.08;48.17;101410.25;4917277;29;4205;-67
2022/07/19 12:25:43;;;;;;;;;;;;;;;25.21;47.09;101408.56;4916854;29;4231;-64
2022/07/19 12:28:09;;;;;;;;;;;;;;;24.93;47.69;101411.16;4916519;29;5241;-68
2022/07/19 12:30:38;;;;;;;;;;;;;;;24.56;49.40;101404.03;4921421;29;4265;-68
2022/07/19 12:33:12;;;;;;;;;;;;;;;24.44;49.13;101401.38;4916846;29;4120;-64
2022/07/19 12:35:45;;;;;;;;;;;;;;;24.66;49.22;101401.50;4917570;29;4250;-63
2022/07/19 12:38:12;;;;;;;;;;;;;;;24.73;48.87;101404.63;4922159;29;4252;-64
2022/07/19 12:40:40;;;;;;;;;;;;;;;24.80;48.54;101403.44;4918694;29;4276;-64
2022/07/19 12:43:06;;;;;;;;;;;;;;;24.84;48.25;101394.91;4914486;29;4253;-66
2022/07/19 12:45:34;;;;;;;;;;;;;;;24.85;48.31;101387.69;4924626;29;5340;-66
2022/07/19 12:48:00;;;;;;;;;;;;;;;24.85;48.36;101384.78;4923371;29;4550;-63
2022/07/19 12:50:27;;;;;;;;;;;;;;;24.85;48.47;101390.56;4923333;29;4069;-64
2022/07/19 12:52:53;;;;;;;;;;;;;;;24.87;48.19;101385.59;4925159;29;4156;-65
2022/07/19 12:55:20;;;;;;;;;;;;;;;24.89;48.22;101387.84;4926870;29;4473;-67
2022/07/19 12:57:47;;;;;;;;;;;;;;;24.86;48.52;101377.59;4925199;29;4274;-65